createdAt,value
2018-12-31T00:03:59.343Z,99304.00
2018-12-31T00:08:01.672Z,99305.00
2018-12-31T00:12:04.029Z,99306.00
2018-12-31T00:16:08.487Z,99293.00
2018-12-31T00:20:10.839Z,99290.00
2018-12-31T00:24:13.148Z,99306.00
2018-12-31T00:28:15.501Z,99298.00
2018-12-31T00:32:20.937Z,99300.00
2018-12-31T00:36:23.255Z,99304.00
2018-12-31T00:40:25.563Z,99310.00
2018-12-31T00:44:27.915Z,99319.00
2018-12-31T00:48:30.912Z,99296.00
2018-12-31T00:52:33.268Z,99300.00
2018-12-31T00:56:35.822Z,99299.00
2018-12-31T01:00:38.160Z,99307.00
2018-12-31T01:04:40.540Z,99299.00
2018-12-31T01:08:42.819Z,99298.00
2018-12-31T01:12:45.116Z,99305.00
2018-12-31T01:16:47.467Z,99283.00
2018-12-31T01:20:49.878Z,99295.00
2018-12-31T01:24:52.142Z,99306.00
2018-12-31T01:28:54.494Z,99300.00
2018-12-31T01:32:56.820Z,99311.00
2018-12-31T01:36:59.162Z,99308.00
2018-12-31T01:41:01.481Z,99317.00
2018-12-31T01:45:03.981Z,99322.00
2018-12-31T01:49:06.301Z,99316.00
2018-12-31T01:53:08.608Z,99297.00
2018-12-31T01:57:10.927Z,99304.00
2018-12-31T02:01:13.243Z,99305.00
2018-12-31T02:05:15.513Z,99305.00
2018-12-31T02:09:17.835Z,99300.00
2018-12-31T02:13:20.131Z,99304.00
2018-12-31T02:17:22.559Z,99309.00
2018-12-31T02:21:24.888Z,99315.00
2018-12-31T02:25:27.263Z,99318.00
2018-12-31T02:29:29.598Z,99320.00
2018-12-31T02:33:31.902Z,99313.00
2018-12-31T02:37:34.224Z,99320.00
2018-12-31T02:41:36.539Z,99321.00
2018-12-31T02:45:38.849Z,99317.00
2018-12-31T02:49:41.235Z,99328.00
2018-12-31T02:53:43.604Z,99326.00
2018-12-31T02:57:45.995Z,99312.00
2018-12-31T03:01:48.299Z,99314.00
2018-12-31T03:05:50.674Z,99318.00
2018-12-31T03:09:52.939Z,99299.00
2018-12-31T03:13:55.254Z,99292.00
2018-12-31T03:17:57.564Z,99292.00
2018-12-31T03:21:59.878Z,99297.00
2018-12-31T03:26:02.210Z,99275.00
2018-12-31T03:30:04.966Z,99279.00
2018-12-31T03:34:07.239Z,99277.00
2018-12-31T03:38:09.529Z,99265.00
2018-12-31T03:42:11.893Z,99272.00
2018-12-31T03:46:14.200Z,99271.00
2018-12-31T03:50:16.476Z,99274.00
2018-12-31T03:54:18.836Z,99282.00
2018-12-31T03:58:21.121Z,99281.00
2018-12-31T04:02:23.392Z,99284.00
2018-12-31T04:06:25.711Z,99278.00
2018-12-31T04:10:28.021Z,99279.00
2018-12-31T04:14:30.331Z,99280.00
2018-12-31T04:18:32.628Z,99284.00
2018-12-31T04:22:34.909Z,99276.00
2018-12-31T04:26:37.253Z,99278.00
2018-12-31T04:30:39.517Z,99269.00
2018-12-31T04:34:41.844Z,99276.00
2018-12-31T04:38:44.132Z,99284.00
2018-12-31T04:42:46.492Z,99289.00
2018-12-31T04:46:48.753Z,99290.00
2018-12-31T04:50:51.230Z,99296.00
2018-12-31T04:54:53.528Z,99298.00
2018-12-31T04:58:55.832Z,99299.00
2018-12-31T05:02:58.118Z,99306.00
2018-12-31T05:07:00.514Z,99298.00
2018-12-31T05:11:02.857Z,99299.00
2018-12-31T05:15:05.270Z,99304.00
2018-12-31T05:19:07.624Z,99304.00
2018-12-31T05:23:09.976Z,99310.00
2018-12-31T05:27:12.289Z,99309.00
2018-12-31T05:31:14.599Z,99320.00
2018-12-31T05:35:16.890Z,99322.00
2018-12-31T05:39:19.195Z,99325.00
2018-12-31T05:43:21.473Z,99332.00
2018-12-31T05:47:23.749Z,99329.00
2018-12-31T05:51:26.059Z,99333.00
2018-12-31T05:55:28.358Z,99331.00
2018-12-31T05:59:30.739Z,99331.00
2018-12-31T06:03:33.110Z,99331.00
2018-12-31T06:07:35.438Z,99332.00
2018-12-31T06:11:37.723Z,99338.00
2018-12-31T06:15:40.067Z,99345.00
2018-12-31T06:19:42.400Z,99347.00
2018-12-31T06:23:44.699Z,99342.00
2018-12-31T06:27:47.054Z,99349.00
2018-12-31T06:31:49.409Z,99358.00
2018-12-31T06:35:51.805Z,99355.00
2018-12-31T06:39:54.162Z,99352.00
2018-12-31T06:43:56.543Z,99363.00
2018-12-31T06:47:58.965Z,99370.00
2018-12-31T06:52:01.301Z,99370.00
2018-12-31T06:56:03.994Z,99372.00
2018-12-31T07:00:06.493Z,99382.00
2018-12-31T07:04:08.943Z,99392.00
2018-12-31T07:08:11.258Z,99385.00
2018-12-31T07:12:13.573Z,99386.00
2018-12-31T07:16:15.930Z,99384.00
2018-12-31T07:20:18.268Z,99401.00
2018-12-31T07:24:20.588Z,99396.00
2018-12-31T07:28:23.068Z,99394.00
2018-12-31T07:32:25.363Z,99395.00
2018-12-31T07:36:27.718Z,99412.00
2018-12-31T07:40:30.042Z,99418.00
2018-12-31T07:44:32.344Z,99429.00
2018-12-31T07:48:34.699Z,99419.00
2018-12-31T07:52:37.106Z,99424.00
2018-12-31T07:56:39.453Z,99431.00
2018-12-31T08:00:41.856Z,99430.00
2018-12-31T08:04:44.173Z,99433.00
2018-12-31T08:08:46.513Z,99430.00
2018-12-31T08:12:48.852Z,99430.00
2018-12-31T08:16:51.183Z,99429.00
2018-12-31T08:20:53.498Z,99434.00
2018-12-31T08:24:55.858Z,99435.00
2018-12-31T08:28:58.233Z,99432.00
2018-12-31T08:33:00.582Z,99447.00
2018-12-31T08:37:02.909Z,99442.00
2018-12-31T08:41:05.224Z,99435.00
2018-12-31T08:45:07.602Z,99441.00
2018-12-31T08:49:10.047Z,99443.00
2018-12-31T08:53:13.692Z,99449.00
2018-12-31T08:57:16.436Z,99446.00
2018-12-31T09:01:18.883Z,99442.00
2018-12-31T09:05:21.198Z,99444.00
2018-12-31T09:09:24.038Z,99448.00
2018-12-31T09:13:26.469Z,99447.00
2018-12-31T09:17:28.837Z,99445.00
2018-12-31T09:21:31.504Z,99449.00
2018-12-31T09:25:33.842Z,99451.00
2018-12-31T09:29:36.367Z,99453.00
2018-12-31T09:33:38.937Z,99451.00
2018-12-31T09:37:41.310Z,99452.00
2018-12-31T09:41:43.674Z,99457.00
2018-12-31T09:45:46.225Z,99464.00
2018-12-31T09:49:48.620Z,99465.00
2018-12-31T09:53:51.245Z,99464.00
2018-12-31T09:57:53.622Z,99456.00
2018-12-31T10:01:56.152Z,99468.00
2018-12-31T10:05:59.171Z,99466.00
2018-12-31T10:10:01.592Z,99461.00
2018-12-31T10:14:03.950Z,99462.00
2018-12-31T10:18:06.317Z,99456.00
2018-12-31T10:22:08.851Z,99456.00
2018-12-31T10:26:11.232Z,99442.00
2018-12-31T10:30:13.730Z,99444.00
2018-12-31T10:34:16.110Z,99439.00
2018-12-31T10:38:18.536Z,99434.00
2018-12-31T10:42:20.964Z,99439.00
2018-12-31T10:46:24.094Z,99430.00
2018-12-31T10:50:29.972Z,99418.00
2018-12-31T10:54:32.404Z,99420.00
2018-12-31T10:58:34.788Z,99426.00
2018-12-31T11:02:37.301Z,99423.00
2018-12-31T11:06:40.791Z,99419.00
2018-12-31T11:10:44.099Z,99424.00
2018-12-31T11:14:46.447Z,99432.00
2018-12-31T11:18:50.097Z,99424.00
2018-12-31T11:22:52.760Z,99419.00
2018-12-31T11:26:55.866Z,99418.00
2018-12-31T11:30:58.449Z,99417.00
2018-12-31T11:35:00.770Z,99402.00
2018-12-31T11:39:03.991Z,99403.00
2018-12-31T11:43:06.404Z,99397.00
2018-12-31T11:47:10.566Z,99394.00
2018-12-31T11:51:12.972Z,99389.00
2018-12-31T11:55:17.164Z,99374.00
2018-12-31T11:59:19.580Z,99378.00
2018-12-31T12:03:21.998Z,99370.00
2018-12-31T12:07:24.464Z,99362.00
2018-12-31T12:11:27.091Z,99371.00
2018-12-31T12:15:30.068Z,99367.00
2018-12-31T12:19:32.555Z,99370.00
2018-12-31T12:23:35.006Z,99359.00
2018-12-31T12:27:38.856Z,99366.00
2018-12-31T12:31:42.259Z,99358.00
2018-12-31T12:35:44.961Z,99363.00
2018-12-31T12:39:47.730Z,99365.00
2018-12-31T12:43:51.189Z,99363.00
2018-12-31T12:47:53.830Z,99370.00
2018-12-31T12:51:56.421Z,99369.00
2018-12-31T12:55:58.990Z,99369.00
2018-12-31T13:00:01.847Z,99379.00
2018-12-31T13:04:04.241Z,99365.00
2018-12-31T13:08:06.713Z,99362.00
2018-12-31T13:12:09.076Z,99369.00
2018-12-31T13:16:11.589Z,99369.00
2018-12-31T13:20:13.968Z,99377.00
2018-12-31T13:24:16.600Z,99370.00
2018-12-31T13:28:19.048Z,99378.00
2018-12-31T13:32:21.664Z,99383.00
2018-12-31T13:36:25.203Z,99376.00
2018-12-31T13:40:27.650Z,99382.00
2018-12-31T13:44:30.042Z,99372.00
2018-12-31T13:48:32.486Z,99379.00
2018-12-31T13:52:35.044Z,99376.00
2018-12-31T13:56:37.425Z,99369.00
2018-12-31T14:00:39.841Z,99368.00
2018-12-31T14:04:42.920Z,99371.00
2018-12-31T14:08:45.269Z,99370.00
2018-12-31T14:12:47.653Z,99380.00
2018-12-31T14:16:50.743Z,99384.00
2018-12-31T14:20:53.130Z,99388.00
2018-12-31T14:24:55.463Z,99390.00
2018-12-31T14:28:58.205Z,99392.00
2018-12-31T14:33:00.629Z,99394.00
2018-12-31T14:37:03.009Z,99394.00
2018-12-31T14:41:05.439Z,99395.00
2018-12-31T14:45:07.796Z,99389.00
2018-12-31T14:49:10.185Z,99399.00
2018-12-31T14:53:12.613Z,99406.00
2018-12-31T14:57:14.978Z,99402.00
2018-12-31T15:01:17.368Z,99411.00
2018-12-31T15:05:19.750Z,99407.00
2018-12-31T15:09:23.779Z,99419.00
2018-12-31T15:13:27.421Z,99414.00
2018-12-31T15:17:29.885Z,99421.00
2018-12-31T15:21:32.315Z,99421.00
2018-12-31T15:25:34.769Z,99416.00
2018-12-31T15:29:37.160Z,99420.00
2018-12-31T15:33:41.552Z,99424.00
2018-12-31T15:37:43.943Z,99424.00
2018-12-31T15:41:46.510Z,99436.00
2018-12-31T15:45:48.935Z,99433.00
2018-12-31T15:49:51.325Z,99427.00
2018-12-31T15:53:53.741Z,99433.00
2018-12-31T15:57:56.124Z,99437.00
2018-12-31T16:01:58.534Z,99427.00
2018-12-31T16:06:00.995Z,99420.00
2018-12-31T16:10:04.302Z,99419.00
2018-12-31T16:14:06.734Z,99427.00
2018-12-31T16:18:09.228Z,99430.00
2018-12-31T16:22:11.667Z,99425.00
2018-12-31T16:26:14.046Z,99433.00
2018-12-31T16:30:17.975Z,99430.00
2018-12-31T16:34:21.019Z,99431.00
2018-12-31T16:38:23.737Z,99429.00
2018-12-31T16:42:26.134Z,99434.00
2018-12-31T16:46:28.576Z,99431.00
2018-12-31T16:50:31.093Z,99425.00
2018-12-31T16:54:33.535Z,99428.00
2018-12-31T16:58:35.910Z,99424.00
2018-12-31T17:02:38.382Z,99432.00
2018-12-31T17:06:40.782Z,99429.00
2018-12-31T17:10:43.238Z,99433.00
2018-12-31T17:14:45.619Z,99430.00
2018-12-31T17:18:48.035Z,99433.00
2018-12-31T17:22:50.359Z,99443.00
2018-12-31T17:26:53.293Z,99443.00
2018-12-31T17:30:55.673Z,99448.00
2018-12-31T17:34:58.038Z,99444.00
2018-12-31T17:39:00.354Z,99445.00
2018-12-31T17:43:02.778Z,99452.00
2018-12-31T17:47:05.136Z,99453.00
2018-12-31T17:51:08.758Z,99448.00
2018-12-31T17:55:11.109Z,99464.00
2018-12-31T17:59:13.521Z,99450.00
2018-12-31T18:03:15.907Z,99444.00
2018-12-31T18:07:18.242Z,99439.00
2018-12-31T18:11:20.706Z,99440.00
2018-12-31T18:15:23.118Z,99445.00
2018-12-31T18:19:25.542Z,99446.00
2018-12-31T18:23:27.878Z,99448.00
2018-12-31T18:27:30.202Z,99449.00
2018-12-31T18:31:32.580Z,99450.00
2018-12-31T18:35:34.940Z,99457.00
2018-12-31T18:39:37.764Z,99464.00
2018-12-31T18:43:40.600Z,99462.00
2018-12-31T18:47:42.959Z,99468.00
2018-12-31T18:51:45.311Z,99470.00
2018-12-31T18:55:47.743Z,99463.00
2018-12-31T18:59:50.078Z,99471.00
2018-12-31T19:03:52.519Z,99473.00
2018-12-31T19:07:54.834Z,99481.00
2018-12-31T19:11:57.226Z,99472.00
2018-12-31T19:15:59.552Z,99472.00
2018-12-31T19:20:03.009Z,99474.00
2018-12-31T19:24:05.335Z,99459.00
2018-12-31T19:28:07.666Z,99462.00
2018-12-31T19:32:10.013Z,99476.00
2018-12-31T19:36:12.362Z,99457.00
2018-12-31T19:40:14.743Z,99449.00
2018-12-31T19:44:17.067Z,99451.00
2018-12-31T19:48:19.998Z,99439.00
2018-12-31T19:52:22.365Z,99431.00
2018-12-31T19:56:24.688Z,99442.00
2018-12-31T20:00:27.062Z,99440.00
2018-12-31T20:04:29.407Z,99436.00
2018-12-31T20:08:31.797Z,99446.00
2018-12-31T20:12:34.186Z,99449.00
2018-12-31T20:16:37.086Z,99447.00
2018-12-31T20:20:39.440Z,99444.00
2018-12-31T20:24:41.910Z,99445.00
2018-12-31T20:28:46.179Z,99438.00
2018-12-31T20:32:49.265Z,99443.00
2018-12-31T20:36:52.642Z,99438.00
2018-12-31T20:40:56.837Z,99440.00
2018-12-31T20:44:59.301Z,99428.00
2018-12-31T20:49:01.728Z,99432.00
2018-12-31T20:53:04.970Z,99420.00
2018-12-31T20:57:08.197Z,99420.00
2018-12-31T21:01:10.576Z,99415.00
2018-12-31T21:05:12.937Z,99409.00
2018-12-31T21:09:15.337Z,99416.00
2018-12-31T21:13:17.637Z,99422.00
2018-12-31T21:17:20.007Z,99417.00
2018-12-31T21:21:22.372Z,99424.00
2018-12-31T21:25:25.906Z,99419.00
2018-12-31T21:29:28.299Z,99433.00
2018-12-31T21:33:30.687Z,99427.00
2018-12-31T21:37:33.718Z,99419.00
2018-12-31T21:41:37.313Z,99426.00
2018-12-31T21:45:39.786Z,99424.00
2018-12-31T21:49:42.875Z,99417.00
2018-12-31T21:53:46.615Z,99414.00
2018-12-31T21:57:48.969Z,99415.00
2018-12-31T22:01:51.371Z,99412.00
2018-12-31T22:05:54.366Z,99412.00
2018-12-31T22:09:56.754Z,99408.00
2018-12-31T22:13:59.094Z,99412.00
2018-12-31T22:18:01.476Z,99402.00
2018-12-31T22:22:03.790Z,99394.00
2018-12-31T22:26:07.186Z,99394.00
2018-12-31T22:30:09.675Z,99408.00
2018-12-31T22:34:13.335Z,99407.00
2018-12-31T22:38:16.610Z,99399.00
2018-12-31T22:42:18.980Z,99398.00
2018-12-31T22:46:21.354Z,99404.00
2018-12-31T22:50:23.723Z,99395.00
2018-12-31T22:54:26.058Z,99395.00
2018-12-31T22:58:28.373Z,99390.00
2018-12-31T23:02:30.792Z,99395.00
2018-12-31T23:06:33.238Z,99397.00
2018-12-31T23:10:35.583Z,99387.00
2018-12-31T23:14:37.902Z,99386.00
2018-12-31T23:18:40.298Z,99376.00
2018-12-31T23:22:43.599Z,99382.00
2018-12-31T23:26:46.538Z,99374.00
2018-12-31T23:30:48.953Z,99370.00
2018-12-31T23:34:51.298Z,99364.00
2018-12-31T23:38:53.622Z,99363.00
2018-12-31T23:42:55.978Z,99368.00
2018-12-31T23:46:58.359Z,99366.00
2018-12-31T23:51:01.397Z,99353.00
2018-12-31T23:55:04.089Z,99353.00
2018-12-31T23:59:07.180Z,99328.00
